sensor_id;sensor_type;location;lat;lon;timestamp;temperature;humidity
57664;DHT22;43493;53.098;6.064;2023-07-20T00:01:08;16.50;99.90
57664;DHT22;43493;53.098;6.064;2023-07-20T00:03:34;16.40;99.90
57664;DHT22;43493;53.098;6.064;2023-07-20T00:06:00;16.30;99.90
57664;DHT22;43493;53.098;6.064;2023-07-20T00:08:26;16.30;99.90
57664;DHT22;43493;53.098;6.064;2023-07-20T00:10:51;16.20;99.90
57664;DHT22;43493;53.098;6.064;2023-07-20T00:13:17;16.10;99.90
57664;DHT22;43493;53.098;6.064;2023-07-20T00:15:44;16.10;99.90
57664;DHT22;43493;53.098;6.064;2023-07-20T00:18:10;16.10;99.90
57664;DHT22;43493;53.098;6.064;2023-07-20T00:20:35;16.00;99.90
57664;DHT22;43493;53.098;6.064;2023-07-20T00:23:01;16.00;99.90
57664;DHT22;43493;53.098;6.064;2023-07-20T00:25:27;15.90;99.90
57664;DHT22;43493;53.098;6.064;2023-07-20T00:30:19;15.80;99.90
57664;DHT22;43493;53.098;6.064;2023-07-20T00:32:45;15.70;99.90
57664;DHT22;43493;53.098;6.064;2023-07-20T00:35:11;15.70;99.90
57664;DHT22;43493;53.098;6.064;2023-07-20T00:37:38;15.70;99.90
57664;DHT22;43493;53.098;6.064;2023-07-20T00:40:04;15.70;99.90
57664;DHT22;43493;53.098;6.064;2023-07-20T00:42:31;15.60;99.90
57664;DHT22;43493;53.098;6.064;2023-07-20T00:44:57;15.60;99.90
57664;DHT22;43493;53.098;6.064;2023-07-20T00:47:22;15.60;99.90
57664;DHT22;43493;53.098;6.064;2023-07-20T00:49:48;15.60;99.90
57664;DHT22;43493;53.098;6.064;2023-07-20T00:52:16;15.50;99.90
57664;DHT22;43493;53.098;6.064;2023-07-20T00:54:41;15.50;99.90
57664;DHT22;43493;53.098;6.064;2023-07-20T00:57:07;15.50;99.90
57664;DHT22;43493;53.098;6.064;2023-07-20T00:59:34;15.40;99.90
57664;DHT22;43493;53.098;6.064;2023-07-20T01:02:02;15.40;99.90
57664;DHT22;43493;53.098;6.064;2023-07-20T01:04:28;15.40;99.90
57664;DHT22;43493;53.098;6.064;2023-07-20T01:07:02;15.40;99.90
57664;DHT22;43493;53.098;6.064;2023-07-20T01:09:48;15.40;99.90
57664;DHT22;43493;53.098;6.064;2023-07-20T01:12:41;15.40;99.90
57664;DHT22;43493;53.098;6.064;2023-07-20T01:15:07;15.40;99.90
57664;DHT22;43493;53.098;6.064;2023-07-20T01:17:34;15.40;99.90
57664;DHT22;43493;53.098;6.064;2023-07-20T01:20:00;15.40;99.90
57664;DHT22;43493;53.098;6.064;2023-07-20T01:28:45;15.30;99.90
57664;DHT22;43493;53.098;6.064;2023-07-20T01:31:28;15.20;99.90
57664;DHT22;43493;53.098;6.064;2023-07-20T01:33:57;15.20;99.90
57664;DHT22;43493;53.098;6.064;2023-07-20T01:36:26;15.20;99.90
57664;DHT22;43493;53.098;6.064;2023-07-20T01:38:54;15.20;99.90
57664;DHT22;43493;53.098;6.064;2023-07-20T01:41:20;15.10;99.90
57664;DHT22;43493;53.098;6.064;2023-07-20T01:43:46;15.10;99.90
57664;DHT22;43493;53.098;6.064;2023-07-20T01:46:12;15.00;99.90
57664;DHT22;43493;53.098;6.064;2023-07-20T01:48:37;15.00;99.90
57664;DHT22;43493;53.098;6.064;2023-07-20T01:51:03;15.10;99.90
57664;DHT22;43493;53.098;6.064;2023-07-20T01:53:29;15.10;99.90
57664;DHT22;43493;53.098;6.064;2023-07-20T01:55:55;15.00;99.90
57664;DHT22;43493;53.098;6.064;2023-07-20T01:58:21;15.00;99.90
57664;DHT22;43493;53.098;6.064;2023-07-20T02:00:46;15.00;99.90
57664;DHT22;43493;53.098;6.064;2023-07-20T02:03:12;15.00;99.90
57664;DHT22;43493;53.098;6.064;2023-07-20T02:05:38;15.00;99.90
57664;DHT22;43493;53.098;6.064;2023-07-20T02:08:04;15.00;99.90
57664;DHT22;43493;53.098;6.064;2023-07-20T02:10:30;14.90;99.90
57664;DHT22;43493;53.098;6.064;2023-07-20T02:12:56;14.90;99.90
57664;DHT22;43493;53.098;6.064;2023-07-20T02:15:22;14.90;99.90
57664;DHT22;43493;53.098;6.064;2023-07-20T02:17:48;14.80;99.90
57664;DHT22;43493;53.098;6.064;2023-07-20T02:20:14;14.80;99.90
57664;DHT22;43493;53.098;6.064;2023-07-20T02:22:40;14.80;99.90
57664;DHT22;43493;53.098;6.064;2023-07-20T02:25:06;14.80;99.90
57664;DHT22;43493;53.098;6.064;2023-07-20T02:27:33;14.80;99.90
57664;DHT22;43493;53.098;6.064;2023-07-20T02:29:59;14.80;99.90
57664;DHT22;43493;53.098;6.064;2023-07-20T02:32:25;14.80;99.90
57664;DHT22;43493;53.098;6.064;2023-07-20T02:34:51;14.70;99.90
57664;DHT22;43493;53.098;6.064;2023-07-20T02:37:17;14.70;99.90
57664;DHT22;43493;53.098;6.064;2023-07-20T02:39:43;14.70;99.90
57664;DHT22;43493;53.098;6.064;2023-07-20T02:42:09;14.60;99.90
57664;DHT22;43493;53.098;6.064;2023-07-20T02:44:34;14.60;99.90
57664;DHT22;43493;53.098;6.064;2023-07-20T02:47:00;14.50;99.90
57664;DHT22;43493;53.098;6.064;2023-07-20T02:49:27;14.40;99.90
57664;DHT22;43493;53.098;6.064;2023-07-20T02:51:52;14.40;99.90
57664;DHT22;43493;53.098;6.064;2023-07-20T02:54:18;14.40;99.90
57664;DHT22;43493;53.098;6.064;2023-07-20T02:56:44;14.40;99.90
57664;DHT22;43493;53.098;6.064;2023-07-20T02:59:10;14.40;99.90
57664;DHT22;43493;53.098;6.064;2023-07-20T03:01:35;14.40;99.90
57664;DHT22;43493;53.098;6.064;2023-07-20T03:04:01;14.40;99.90
57664;DHT22;43493;53.098;6.064;2023-07-20T03:06:28;14.40;99.90
57664;DHT22;43493;53.098;6.064;2023-07-20T03:08:53;14.40;99.90
57664;DHT22;43493;53.098;6.064;2023-07-20T03:11:20;14.40;99.90
57664;DHT22;43493;53.098;6.064;2023-07-20T03:13:46;14.30;99.90
57664;DHT22;43493;53.098;6.064;2023-07-20T03:16:15;14.30;99.90
57664;DHT22;43493;53.098;6.064;2023-07-20T03:18:43;14.30;99.90
57664;DHT22;43493;53.098;6.064;2023-07-20T03:21:10;14.40;99.90
57664;DHT22;43493;53.098;6.064;2023-07-20T03:23:40;14.30;99.90
57664;DHT22;43493;53.098;6.064;2023-07-20T03:26:06;14.20;99.90
57664;DHT22;43493;53.098;6.064;2023-07-20T03:28:37;14.20;99.90
57664;DHT22;43493;53.098;6.064;2023-07-20T03:31:03;14.10;99.90
57664;DHT22;43493;53.098;6.064;2023-07-20T03:33:30;14.10;99.90
57664;DHT22;43493;53.098;6.064;2023-07-20T03:35:56;14.20;99.90
57664;DHT22;43493;53.098;6.064;2023-07-20T03:38:24;14.10;99.90
57664;DHT22;43493;53.098;6.064;2023-07-20T03:40:57;14.10;99.90
57664;DHT22;43493;53.098;6.064;2023-07-20T03:43:25;14.10;99.90
57664;DHT22;43493;53.098;6.064;2023-07-20T03:45:51;14.10;99.90
57664;DHT22;43493;53.098;6.064;2023-07-20T03:48:19;14.10;99.90
57664;DHT22;43493;53.098;6.064;2023-07-20T03:50:48;14.00;99.90
57664;DHT22;43493;53.098;6.064;2023-07-20T03:53:15;14.00;99.90
57664;DHT22;43493;53.098;6.064;2023-07-20T03:55:42;14.00;99.90
57664;DHT22;43493;53.098;6.064;2023-07-20T03:58:09;14.00;99.90
57664;DHT22;43493;53.098;6.064;2023-07-20T04:00:35;13.90;99.90
57664;DHT22;43493;53.098;6.064;2023-07-20T04:03:01;14.00;99.90
57664;DHT22;43493;53.098;6.064;2023-07-20T04:05:27;14.00;99.90
57664;DHT22;43493;53.098;6.064;2023-07-20T04:07:52;14.10;99.90
57664;DHT22;43493;53.098;6.064;2023-07-20T04:10:18;14.00;99.90
57664;DHT22;43493;53.098;6.064;2023-07-20T04:12:45;14.10;99.90
57664;DHT22;43493;53.098;6.064;2023-07-20T04:15:13;14.10;99.90
57664;DHT22;43493;53.098;6.064;2023-07-20T04:17:39;14.10;99.90
57664;DHT22;43493;53.098;6.064;2023-07-20T04:20:06;14.10;99.90
57664;DHT22;43493;53.098;6.064;2023-07-20T04:22:32;14.10;99.90
57664;DHT22;43493;53.098;6.064;2023-07-20T04:24:58;14.10;99.90
57664;DHT22;43493;53.098;6.064;2023-07-20T04:27:24;14.10;99.90
57664;DHT22;43493;53.098;6.064;2023-07-20T04:29:49;14.20;99.90
57664;DHT22;43493;53.098;6.064;2023-07-20T04:32:15;14.10;99.90
57664;DHT22;43493;53.098;6.064;2023-07-20T04:34:42;14.20;99.90
57664;DHT22;43493;53.098;6.064;2023-07-20T04:37:08;14.20;99.90
57664;DHT22;43493;53.098;6.064;2023-07-20T04:39:33;14.20;99.90
57664;DHT22;43493;53.098;6.064;2023-07-20T04:41:59;14.30;99.90
57664;DHT22;43493;53.098;6.064;2023-07-20T04:44:25;14.30;99.90
57664;DHT22;43493;53.098;6.064;2023-07-20T04:46:50;14.30;99.90
57664;DHT22;43493;53.098;6.064;2023-07-20T04:49:16;14.30;99.90
57664;DHT22;43493;53.098;6.064;2023-07-20T04:51:42;14.40;99.90
57664;DHT22;43493;53.098;6.064;2023-07-20T04:54:08;14.40;99.90
57664;DHT22;43493;53.098;6.064;2023-07-20T04:56:33;14.50;99.90
57664;DHT22;43493;53.098;6.064;2023-07-20T04:58:59;14.60;99.90
57664;DHT22;43493;53.098;6.064;2023-07-20T05:01:25;14.60;99.90
57664;DHT22;43493;53.098;6.064;2023-07-20T05:03:52;14.70;99.90
57664;DHT22;43493;53.098;6.064;2023-07-20T05:06:18;14.70;99.90
57664;DHT22;43493;53.098;6.064;2023-07-20T05:08:44;14.90;99.90
57664;DHT22;43493;53.098;6.064;2023-07-20T05:11:11;15.00;99.90
57664;DHT22;43493;53.098;6.064;2023-07-20T05:13:37;15.10;99.90
57664;DHT22;43493;53.098;6.064;2023-07-20T05:16:03;15.20;99.90
57664;DHT22;43493;53.098;6.064;2023-07-20T05:18:29;15.30;99.90
57664;DHT22;43493;53.098;6.064;2023-07-20T05:20:55;15.50;99.90
57664;DHT22;43493;53.098;6.064;2023-07-20T05:23:21;15.60;99.90
57664;DHT22;43493;53.098;6.064;2023-07-20T05:25:53;15.70;99.90
57664;DHT22;43493;53.098;6.064;2023-07-20T05:28:19;15.90;99.90
57664;DHT22;43493;53.098;6.064;2023-07-20T05:30:45;16.00;99.90
57664;DHT22;43493;53.098;6.064;2023-07-20T05:33:10;16.10;99.90
57664;DHT22;43493;53.098;6.064;2023-07-20T05:35:37;16.30;99.90
57664;DHT22;43493;53.098;6.064;2023-07-20T05:38:03;16.40;99.90
57664;DHT22;43493;53.098;6.064;2023-07-20T05:40:31;16.50;99.90
57664;DHT22;43493;53.098;6.064;2023-07-20T05:42:56;16.80;99.90
57664;DHT22;43493;53.098;6.064;2023-07-20T05:45:22;16.90;99.90
57664;DHT22;43493;53.098;6.064;2023-07-20T05:47:48;17.10;99.90
57664;DHT22;43493;53.098;6.064;2023-07-20T05:50:14;17.20;99.90
57664;DHT22;43493;53.098;6.064;2023-07-20T05:52:40;17.30;99.90
57664;DHT22;43493;53.098;6.064;2023-07-20T05:55:06;17.50;99.90
57664;DHT22;43493;53.098;6.064;2023-07-20T05:57:32;18.10;99.90
57664;DHT22;43493;53.098;6.064;2023-07-20T05:59:58;19.50;99.90
57664;DHT22;43493;53.098;6.064;2023-07-20T06:02:24;21.00;99.90
57664;DHT22;43493;53.098;6.064;2023-07-20T06:04:49;22.20;99.90
57664;DHT22;43493;53.098;6.064;2023-07-20T06:07:15;23.20;99.90
57664;DHT22;43493;53.098;6.064;2023-07-20T06:09:41;24.20;99.90
57664;DHT22;43493;53.098;6.064;2023-07-20T06:12:07;24.90;99.90
57664;DHT22;43493;53.098;6.064;2023-07-20T06:14:33;25.60;99.90
57664;DHT22;43493;53.098;6.064;2023-07-20T06:16:59;26.20;99.90
57664;DHT22;43493;53.098;6.064;2023-07-20T06:19:25;26.70;99.90
57664;DHT22;43493;53.098;6.064;2023-07-20T06:21:50;27.20;99.90
57664;DHT22;43493;53.098;6.064;2023-07-20T06:24:19;27.80;96.70
57664;DHT22;43493;53.098;6.064;2023-07-20T06:26:45;28.30;78.30
57664;DHT22;43493;53.098;6.064;2023-07-20T06:29:10;28.60;89.10
57664;DHT22;43493;53.098;6.064;2023-07-20T06:31:37;29.10;81.50
57664;DHT22;43493;53.098;6.064;2023-07-20T06:34:03;29.40;71.50
57664;DHT22;43493;53.098;6.064;2023-07-20T06:36:29;29.80;66.70
57664;DHT22;43493;53.098;6.064;2023-07-20T06:38:55;30.20;62.00
57664;DHT22;43493;53.098;6.064;2023-07-20T06:41:21;30.60;57.30
57664;DHT22;43493;53.098;6.064;2023-07-20T06:43:47;30.70;55.40
57664;DHT22;43493;53.098;6.064;2023-07-20T06:46:13;30.90;54.20
57664;DHT22;43493;53.098;6.064;2023-07-20T06:48:39;31.50;53.30
57664;DHT22;43493;53.098;6.064;2023-07-20T06:51:05;31.60;51.30
57664;DHT22;43493;53.098;6.064;2023-07-20T06:53:31;31.80;50.20
57664;DHT22;43493;53.098;6.064;2023-07-20T06:55:57;31.90;49.10
57664;DHT22;43493;53.098;6.064;2023-07-20T06:58:25;32.20;48.70
57664;DHT22;43493;53.098;6.064;2023-07-20T07:00:51;32.40;46.10
57664;DHT22;43493;53.098;6.064;2023-07-20T07:03:17;32.70;46.60
57664;DHT22;43493;53.098;6.064;2023-07-20T07:05:43;33.00;45.30
57664;DHT22;43493;53.098;6.064;2023-07-20T07:08:12;33.00;44.30
57664;DHT22;43493;53.098;6.064;2023-07-20T07:10:38;33.20;44.70
57664;DHT22;43493;53.098;6.064;2023-07-20T07:13:04;33.30;43.60
57664;DHT22;43493;53.098;6.064;2023-07-20T07:15:30;33.50;43.70
57664;DHT22;43493;53.098;6.064;2023-07-20T07:17:56;33.20;42.80
57664;DHT22;43493;53.098;6.064;2023-07-20T07:20:22;33.00;42.70
57664;DHT22;43493;53.098;6.064;2023-07-20T07:22:50;32.90;43.80
57664;DHT22;43493;53.098;6.064;2023-07-20T07:25:17;33.10;42.90
57664;DHT22;43493;53.098;6.064;2023-07-20T07:27:43;33.30;42.50
57664;DHT22;43493;53.098;6.064;2023-07-20T07:30:09;32.80;41.30
57664;DHT22;43493;53.098;6.064;2023-07-20T07:32:35;31.40;41.90
57664;DHT22;43493;53.098;6.064;2023-07-20T07:35:01;30.00;43.50
57664;DHT22;43493;53.098;6.064;2023-07-20T07:37:26;28.70;45.60
57664;DHT22;43493;53.098;6.064;2023-07-20T07:39:52;27.50;46.10
57664;DHT22;43493;53.098;6.064;2023-07-20T07:42:18;26.40;47.30
57664;DHT22;43493;53.098;6.064;2023-07-20T07:44:46;25.50;48.80
57664;DHT22;43493;53.098;6.064;2023-07-20T07:47:12;25.00;50.30
57664;DHT22;43493;53.098;6.064;2023-07-20T07:49:38;25.70;52.50
57664;DHT22;43493;53.098;6.064;2023-07-20T07:52:04;27.10;51.30
57664;DHT22;43493;53.098;6.064;2023-07-20T07:54:30;28.60;49.30
57664;DHT22;43493;53.098;6.064;2023-07-20T07:56:56;29.60;46.90
57664;DHT22;43493;53.098;6.064;2023-07-20T07:59:21;30.60;45.70
57664;DHT22;43493;53.098;6.064;2023-07-20T08:01:48;31.50;43.40
57664;DHT22;43493;53.098;6.064;2023-07-20T08:04:13;32.10;41.80
57664;DHT22;43493;53.098;6.064;2023-07-20T08:06:39;32.50;41.10
57664;DHT22;43493;53.098;6.064;2023-07-20T08:09:05;33.10;40.60
57664;DHT22;43493;53.098;6.064;2023-07-20T08:14:00;33.80;38.30
57664;DHT22;43493;53.098;6.064;2023-07-20T08:16:26;34.00;37.90
57664;DHT22;43493;53.098;6.064;2023-07-20T08:18:52;34.10;38.00
57664;DHT22;43493;53.098;6.064;2023-07-20T08:21:17;34.50;37.80
57664;DHT22;43493;53.098;6.064;2023-07-20T08:23:43;34.50;37.20
57664;DHT22;43493;53.098;6.064;2023-07-20T08:26:09;34.70;36.80
57664;DHT22;43493;53.098;6.064;2023-07-20T08:28:34;34.50;36.50
57664;DHT22;43493;53.098;6.064;2023-07-20T08:31:00;34.50;37.00
57664;DHT22;43493;53.098;6.064;2023-07-20T08:33:26;34.30;36.90
57664;DHT22;43493;53.098;6.064;2023-07-20T08:35:55;34.30;37.20
57664;DHT22;43493;53.098;6.064;2023-07-20T08:38:21;34.10;37.00
57664;DHT22;43493;53.098;6.064;2023-07-20T08:40:47;34.00;37.60
57664;DHT22;43493;53.098;6.064;2023-07-20T08:43:14;33.70;37.80
57664;DHT22;43493;53.098;6.064;2023-07-20T08:45:43;33.30;38.90
57664;DHT22;43493;53.098;6.064;2023-07-20T08:48:12;32.50;38.60
57664;DHT22;43493;53.098;6.064;2023-07-20T08:50:38;31.90;39.30
57664;DHT22;43493;53.098;6.064;2023-07-20T08:53:04;31.00;40.20
57664;DHT22;43493;53.098;6.064;2023-07-20T08:55:30;30.40;40.10
57664;DHT22;43493;53.098;6.064;2023-07-20T08:57:59;29.50;40.70
57664;DHT22;43493;53.098;6.064;2023-07-20T09:00:25;28.70;42.10
57664;DHT22;43493;53.098;6.064;2023-07-20T09:02:53;28.20;42.80
57664;DHT22;43493;53.098;6.064;2023-07-20T09:05:20;27.70;43.40
57664;DHT22;43493;53.098;6.064;2023-07-20T09:07:47;27.20;44.10
57664;DHT22;43493;53.098;6.064;2023-07-20T09:10:12;26.50;44.30
57664;DHT22;43493;53.098;6.064;2023-07-20T09:12:40;26.00;45.40
57664;DHT22;43493;53.098;6.064;2023-07-20T09:15:06;25.60;46.50
57664;DHT22;43493;53.098;6.064;2023-07-20T09:17:32;25.10;47.80
57664;DHT22;43493;53.098;6.064;2023-07-20T09:19:59;24.90;48.60
57664;DHT22;43493;53.098;6.064;2023-07-20T09:22:31;24.80;49.10
57664;DHT22;43493;53.098;6.064;2023-07-20T09:24:58;24.80;49.90
57664;DHT22;43493;53.098;6.064;2023-07-20T09:27:35;24.90;49.70
57664;DHT22;43493;53.098;6.064;2023-07-20T09:30:02;25.20;49.80
57664;DHT22;43493;53.098;6.064;2023-07-20T09:32:28;25.40;50.20
57664;DHT22;43493;53.098;6.064;2023-07-20T09:34:54;25.40;50.20
57664;DHT22;43493;53.098;6.064;2023-07-20T09:37:23;25.40;50.20
57664;DHT22;43493;53.098;6.064;2023-07-20T09:39:52;25.60;50.20
57664;DHT22;43493;53.098;6.064;2023-07-20T09:42:22;25.50;50.50
57664;DHT22;43493;53.098;6.064;2023-07-20T09:44:49;25.50;50.40
57664;DHT22;43493;53.098;6.064;2023-07-20T09:47:22;25.50;49.80
57664;DHT22;43493;53.098;6.064;2023-07-20T09:49:48;25.40;49.60
57664;DHT22;43493;53.098;6.064;2023-07-20T09:52:15;25.20;49.90
57664;DHT22;43493;53.098;6.064;2023-07-20T09:54:44;25.00;49.80
57664;DHT22;43493;53.098;6.064;2023-07-20T09:57:11;24.70;50.90
57664;DHT22;43493;53.098;6.064;2023-07-20T09:59:39;24.50;51.70
57664;DHT22;43493;53.098;6.064;2023-07-20T10:02:52;24.30;52.00
57664;DHT22;43493;53.098;6.064;2023-07-20T10:05:02;24.00;52.60
57664;DHT22;43493;53.098;6.064;2023-07-20T10:07:30;23.90;53.50
57664;DHT22;43493;53.098;6.064;2023-07-20T10:09:59;23.80;53.90
57664;DHT22;43493;53.098;6.064;2023-07-20T10:12:27;23.80;53.90
57664;DHT22;43493;53.098;6.064;2023-07-20T10:15:09;23.90;53.90
57664;DHT22;43493;53.098;6.064;2023-07-20T10:17:44;23.80;54.30
57664;DHT22;43493;53.098;6.064;2023-07-20T10:20:16;23.90;54.60
57664;DHT22;43493;53.098;6.064;2023-07-20T10:22:47;23.80;54.20
57664;DHT22;43493;53.098;6.064;2023-07-20T10:25:16;23.80;54.10
57664;DHT22;43493;53.098;6.064;2023-07-20T10:27:42;23.80;53.60
57664;DHT22;43493;53.098;6.064;2023-07-20T10:30:08;23.90;54.00
57664;DHT22;43493;53.098;6.064;2023-07-20T10:32:35;24.00;55.10
57664;DHT22;43493;53.098;6.064;2023-07-20T10:35:01;24.10;55.50
57664;DHT22;43493;53.098;6.064;2023-07-20T10:37:45;24.00;56.00
57664;DHT22;43493;53.098;6.064;2023-07-20T10:40:27;23.70;55.20
57664;DHT22;43493;53.098;6.064;2023-07-20T10:43:05;23.70;57.40
57664;DHT22;43493;53.098;6.064;2023-07-20T10:45:48;23.40;56.10
57664;DHT22;43493;53.098;6.064;2023-07-20T10:48:19;23.30;57.10
57664;DHT22;43493;53.098;6.064;2023-07-20T10:50:46;23.40;57.60
57664;DHT22;43493;53.098;6.064;2023-07-20T10:53:31;23.50;57.00
57664;DHT22;43493;53.098;6.064;2023-07-20T10:56:19;23.70;56.90
57664;DHT22;43493;53.098;6.064;2023-07-20T10:58:45;23.70;56.10
57664;DHT22;43493;53.098;6.064;2023-07-20T11:01:16;23.60;54.90
57664;DHT22;43493;53.098;6.064;2023-07-20T11:03:43;23.60;55.00
57664;DHT22;43493;53.098;6.064;2023-07-20T11:11:26;22.30;99.90
57664;DHT22;43493;53.098;6.064;2023-07-20T11:14:00;21.90;99.90
57664;DHT22;43493;53.098;6.064;2023-07-20T11:16:45;21.70;99.90
57664;DHT22;43493;53.098;6.064;2023-07-20T11:19:25;21.60;99.90
57664;DHT22;43493;53.098;6.064;2023-07-20T11:21:52;21.50;99.90
57664;DHT22;43493;53.098;6.064;2023-07-20T11:24:19;21.60;99.90
57664;DHT22;43493;53.098;6.064;2023-07-20T11:26:54;21.50;99.90
57664;DHT22;43493;53.098;6.064;2023-07-20T11:29:22;21.70;99.90
57664;DHT22;43493;53.098;6.064;2023-07-20T11:31:49;21.70;99.90
57664;DHT22;43493;53.098;6.064;2023-07-20T11:34:16;21.70;99.90
57664;DHT22;43493;53.098;6.064;2023-07-20T11:36:44;21.80;99.90
57664;DHT22;43493;53.098;6.064;2023-07-20T11:39:18;21.80;99.90
57664;DHT22;43493;53.098;6.064;2023-07-20T11:41:51;21.90;99.90
57664;DHT22;43493;53.098;6.064;2023-07-20T11:44:18;21.90;99.90
57664;DHT22;43493;53.098;6.064;2023-07-20T11:46:44;21.80;99.90
57664;DHT22;43493;53.098;6.064;2023-07-20T11:49:10;21.90;99.90
57664;DHT22;43493;53.098;6.064;2023-07-20T11:51:37;21.90;99.90
57664;DHT22;43493;53.098;6.064;2023-07-20T11:54:04;22.00;99.90
57664;DHT22;43493;53.098;6.064;2023-07-20T11:56:30;22.00;99.90
57664;DHT22;43493;53.098;6.064;2023-07-20T11:58:58;22.10;99.90
57664;DHT22;43493;53.098;6.064;2023-07-20T12:01:29;22.10;99.90
57664;DHT22;43493;53.098;6.064;2023-07-20T12:03:59;22.10;99.90
57664;DHT22;43493;53.098;6.064;2023-07-20T12:06:28;22.10;99.90
57664;DHT22;43493;53.098;6.064;2023-07-20T12:08:55;22.20;99.90
57664;DHT22;43493;53.098;6.064;2023-07-20T12:11:35;22.40;99.90
57664;DHT22;43493;53.098;6.064;2023-07-20T12:14:02;22.50;99.90
57664;DHT22;43493;53.098;6.064;2023-07-20T12:16:29;22.50;99.90
57664;DHT22;43493;53.098;6.064;2023-07-20T12:19:05;22.50;99.90
57664;DHT22;43493;53.098;6.064;2023-07-20T12:21:31;22.40;98.30
57664;DHT22;43493;53.098;6.064;2023-07-20T12:23:58;22.30;99.20
57664;DHT22;43493;53.098;6.064;2023-07-20T12:26:25;22.20;99.50
57664;DHT22;43493;53.098;6.064;2023-07-20T12:28:52;22.20;99.50
57664;DHT22;43493;53.098;6.064;2023-07-20T12:31:18;22.30;99.50
57664;DHT22;43493;53.098;6.064;2023-07-20T12:33:43;22.30;98.40
57664;DHT22;43493;53.098;6.064;2023-07-20T12:36:10;22.30;98.30
57664;DHT22;43493;53.098;6.064;2023-07-20T12:38:36;22.40;97.30
57664;DHT22;43493;53.098;6.064;2023-07-20T12:41:02;22.40;96.50
57664;DHT22;43493;53.098;6.064;2023-07-20T12:43:28;22.40;95.70
57664;DHT22;43493;53.098;6.064;2023-07-20T12:45:55;22.30;94.50
57664;DHT22;43493;53.098;6.064;2023-07-20T12:48:21;22.30;94.50
57664;DHT22;43493;53.098;6.064;2023-07-20T12:50:47;22.30;93.20
57664;DHT22;43493;53.098;6.064;2023-07-20T12:53:13;22.30;92.50
57664;DHT22;43493;53.098;6.064;2023-07-20T12:55:39;22.10;90.60
57664;DHT22;43493;53.098;6.064;2023-07-20T12:58:06;22.00;90.10
57664;DHT22;43493;53.098;6.064;2023-07-20T13:00:32;22.00;91.30
57664;DHT22;43493;53.098;6.064;2023-07-20T13:02:57;22.10;90.60
57664;DHT22;43493;53.098;6.064;2023-07-20T13:05:24;22.10;90.50
57664;DHT22;43493;53.098;6.064;2023-07-20T13:07:49;22.20;90.20
57664;DHT22;43493;53.098;6.064;2023-07-20T13:10:15;22.20;87.70
57664;DHT22;43493;53.098;6.064;2023-07-20T13:12:41;22.10;87.70
57664;DHT22;43493;53.098;6.064;2023-07-20T13:15:09;22.10;84.60
57664;DHT22;43493;53.098;6.064;2023-07-20T13:17:35;22.10;82.10
57664;DHT22;43493;53.098;6.064;2023-07-20T13:20:03;22.00;79.40
57664;DHT22;43493;53.098;6.064;2023-07-20T13:22:33;22.00;79.10
57664;DHT22;43493;53.098;6.064;2023-07-20T13:24:59;22.00;78.30
57664;DHT22;43493;53.098;6.064;2023-07-20T13:27:25;22.10;79.70
57664;DHT22;43493;53.098;6.064;2023-07-20T13:29:51;22.10;79.00
57664;DHT22;43493;53.098;6.064;2023-07-20T13:32:18;22.00;78.30
57664;DHT22;43493;53.098;6.064;2023-07-20T13:34:44;22.00;79.40
57664;DHT22;43493;53.098;6.064;2023-07-20T13:37:10;22.00;79.30
57664;DHT22;43493;53.098;6.064;2023-07-20T13:39:37;21.90;79.70
57664;DHT22;43493;53.098;6.064;2023-07-20T13:42:03;21.90;79.70
57664;DHT22;43493;53.098;6.064;2023-07-20T13:44:31;21.90;79.40
57664;DHT22;43493;53.098;6.064;2023-07-20T13:46:57;21.90;80.10
57664;DHT22;43493;53.098;6.064;2023-07-20T13:49:23;21.90;78.60
57664;DHT22;43493;53.098;6.064;2023-07-20T13:51:49;21.90;75.40
57664;DHT22;43493;53.098;6.064;2023-07-20T13:54:15;21.90;77.90
57664;DHT22;43493;53.098;6.064;2023-07-20T13:56:40;21.90;74.60
57664;DHT22;43493;53.098;6.064;2023-07-20T13:59:06;21.80;73.50
57664;DHT22;43493;53.098;6.064;2023-07-20T14:01:32;21.80;72.00
57664;DHT22;43493;53.098;6.064;2023-07-20T14:04:01;21.70;71.30
57664;DHT22;43493;53.098;6.064;2023-07-20T14:06:30;21.80;73.20
57664;DHT22;43493;53.098;6.064;2023-07-20T14:08:57;21.80;71.50
57664;DHT22;43493;53.098;6.064;2023-07-20T14:11:23;21.80;72.50
57664;DHT22;43493;53.098;6.064;2023-07-20T14:13:50;21.80;72.60
57664;DHT22;43493;53.098;6.064;2023-07-20T14:16:16;21.90;72.50
57664;DHT22;43493;53.098;6.064;2023-07-20T14:18:42;21.90;72.00
57664;DHT22;43493;53.098;6.064;2023-07-20T14:21:08;21.90;71.70
57664;DHT22;43493;53.098;6.064;2023-07-20T14:23:33;21.90;71.00
57664;DHT22;43493;53.098;6.064;2023-07-20T14:25:59;21.90;69.60
57664;DHT22;43493;53.098;6.064;2023-07-20T14:28:25;21.90;68.70
57664;DHT22;43493;53.098;6.064;2023-07-20T14:30:51;21.90;68.70
57664;DHT22;43493;53.098;6.064;2023-07-20T14:33:17;21.90;68.70
57664;DHT22;43493;53.098;6.064;2023-07-20T14:35:42;22.00;70.30
57664;DHT22;43493;53.098;6.064;2023-07-20T14:38:08;22.00;68.50
57664;DHT22;43493;53.098;6.064;2023-07-20T14:40:34;22.00;68.70
57664;DHT22;43493;53.098;6.064;2023-07-20T14:42:59;21.90;69.50
57664;DHT22;43493;53.098;6.064;2023-07-20T14:45:28;21.90;67.30
57664;DHT22;43493;53.098;6.064;2023-07-20T14:47:54;21.80;68.30
57664;DHT22;43493;53.098;6.064;2023-07-20T14:50:20;21.80;68.70
57664;DHT22;43493;53.098;6.064;2023-07-20T14:52:46;21.80;68.60
57664;DHT22;43493;53.098;6.064;2023-07-20T14:55:12;21.90;69.80
57664;DHT22;43493;53.098;6.064;2023-07-20T14:57:38;21.90;68.00
57664;DHT22;43493;53.098;6.064;2023-07-20T15:00:05;21.90;68.40
57664;DHT22;43493;53.098;6.064;2023-07-20T15:02:39;22.00;69.60
57664;DHT22;43493;53.098;6.064;2023-07-20T15:05:08;22.00;69.90
57664;DHT22;43493;53.098;6.064;2023-07-20T15:07:34;21.90;70.30
57664;DHT22;43493;53.098;6.064;2023-07-20T15:10:02;21.90;70.80
57664;DHT22;43493;53.098;6.064;2023-07-20T15:12:27;21.80;70.90
57664;DHT22;43493;53.098;6.064;2023-07-20T15:15:13;21.80;71.30
57664;DHT22;43493;53.098;6.064;2023-07-20T15:17:42;21.80;72.10
57664;DHT22;43493;53.098;6.064;2023-07-20T15:20:09;21.90;72.60
57664;DHT22;43493;53.098;6.064;2023-07-20T15:22:35;21.90;73.60
57664;DHT22;43493;53.098;6.064;2023-07-20T15:25:05;21.90;73.60
57664;DHT22;43493;53.098;6.064;2023-07-20T15:27:32;21.90;75.60
57664;DHT22;43493;53.098;6.064;2023-07-20T15:29:58;21.90;75.70
57664;DHT22;43493;53.098;6.064;2023-07-20T15:32:24;21.90;76.30
57664;DHT22;43493;53.098;6.064;2023-07-20T15:34:50;21.90;75.90
57664;DHT22;43493;53.098;6.064;2023-07-20T15:37:15;21.90;76.40
57664;DHT22;43493;53.098;6.064;2023-07-20T15:39:41;21.90;76.10
57664;DHT22;43493;53.098;6.064;2023-07-20T15:42:07;21.90;76.10
57664;DHT22;43493;53.098;6.064;2023-07-20T15:44:33;21.90;76.50
57664;DHT22;43493;53.098;6.064;2023-07-20T15:47:00;21.90;76.60